sensor_id;sensor_type;location;lat;lon;timestamp;P1;durP1;ratioP1;P2;durP2;ratioP2
33954;SDS011;20233;50.804;7.126;2023-07-16T00:00:41;3.15;;;0.40;;
33954;SDS011;20233;50.804;7.126;2023-07-16T00:03:07;3.00;;;0.40;;
33954;SDS011;20233;50.804;7.126;2023-07-16T00:05:35;1.92;;;0.30;;
33954;SDS011;20233;50.804;7.126;2023-07-16T00:08:03;2.30;;;0.40;;
33954;SDS011;20233;50.804;7.126;2023-07-16T00:10:32;3.63;;;0.40;;
33954;SDS011;20233;50.804;7.126;2023-07-16T00:13:02;1.52;;;0.30;;
33954;SDS011;20233;50.804;7.126;2023-07-16T00:15:29;2.17;;;0.77;;
33954;SDS011;20233;50.804;7.126;2023-07-16T00:17:56;1.15;;;0.30;;
33954;SDS011;20233;50.804;7.126;2023-07-16T00:20:22;2.42;;;0.40;;
33954;SDS011;20233;50.804;7.126;2023-07-16T00:22:51;4.00;;;0.57;;
33954;SDS011;20233;50.804;7.126;2023-07-16T00:25:17;2.17;;;0.50;;
33954;SDS011;20233;50.804;7.126;2023-07-16T00:27:43;3.97;;;0.63;;
33954;SDS011;20233;50.804;7.126;2023-07-16T00:30:09;2.63;;;0.40;;
33954;SDS011;20233;50.804;7.126;2023-07-16T00:32:35;2.78;;;0.63;;
33954;SDS011;20233;50.804;7.126;2023-07-16T00:35:02;1.67;;;0.40;;
33954;SDS011;20233;50.804;7.126;2023-07-16T00:37:28;3.22;;;0.50;;
33954;SDS011;20233;50.804;7.126;2023-07-16T00:39:55;3.28;;;0.40;;
33954;SDS011;20233;50.804;7.126;2023-07-16T00:42:21;1.73;;;0.40;;
33954;SDS011;20233;50.804;7.126;2023-07-16T00:44:47;3.45;;;0.40;;
33954;SDS011;20233;50.804;7.126;2023-07-16T00:47:13;3.78;;;0.40;;
33954;SDS011;20233;50.804;7.126;2023-07-16T00:49:39;2.63;;;0.75;;
33954;SDS011;20233;50.804;7.126;2023-07-16T00:52:07;2.92;;;0.30;;
33954;SDS011;20233;50.804;7.126;2023-07-16T00:54:38;5.72;;;0.60;;
33954;SDS011;20233;50.804;7.126;2023-07-16T00:57:04;2.65;;;0.40;;
33954;SDS011;20233;50.804;7.126;2023-07-16T00:59:30;5.32;;;0.68;;
33954;SDS011;20233;50.804;7.126;2023-07-16T01:01:57;2.15;;;0.38;;
33954;SDS011;20233;50.804;7.126;2023-07-16T01:04:24;3.00;;;0.30;;
33954;SDS011;20233;50.804;7.126;2023-07-16T01:06:51;2.95;;;0.47;;
33954;SDS011;20233;50.804;7.126;2023-07-16T01:09:22;4.22;;;0.70;;
33954;SDS011;20233;50.804;7.126;2023-07-16T01:11:50;3.40;;;0.50;;
33954;SDS011;20233;50.804;7.126;2023-07-16T01:14:18;3.65;;;0.52;;
33954;SDS011;20233;50.804;7.126;2023-07-16T01:16:44;4.72;;;0.40;;
33954;SDS011;20233;50.804;7.126;2023-07-16T01:19:10;2.35;;;0.68;;
33954;SDS011;20233;50.804;7.126;2023-07-16T01:21:44;3.40;;;0.43;;
33954;SDS011;20233;50.804;7.126;2023-07-16T01:24:26;2.95;;;0.30;;
33954;SDS011;20233;50.804;7.126;2023-07-16T01:30:08;5.07;;;0.55;;
33954;SDS011;20233;50.804;7.126;2023-07-16T01:32:35;2.78;;;0.38;;
33954;SDS011;20233;50.804;7.126;2023-07-16T01:35:03;2.20;;;0.40;;
33954;SDS011;20233;50.804;7.126;2023-07-16T01:37:31;2.55;;;0.40;;
33954;SDS011;20233;50.804;7.126;2023-07-16T01:39:58;4.15;;;0.50;;
33954;SDS011;20233;50.804;7.126;2023-07-16T01:42:25;3.38;;;0.50;;
33954;SDS011;20233;50.804;7.126;2023-07-16T01:44:52;2.97;;;0.63;;
33954;SDS011;20233;50.804;7.126;2023-07-16T01:47:55;3.33;;;0.32;;
33954;SDS011;20233;50.804;7.126;2023-07-16T01:50:20;1.73;;;0.50;;
33954;SDS011;20233;50.804;7.126;2023-07-16T01:52:47;2.55;;;0.45;;
33954;SDS011;20233;50.804;7.126;2023-07-16T01:55:13;2.95;;;0.47;;
33954;SDS011;20233;50.804;7.126;2023-07-16T01:57:38;3.00;;;0.52;;
33954;SDS011;20233;50.804;7.126;2023-07-16T02:00:05;5.57;;;0.82;;
33954;SDS011;20233;50.804;7.126;2023-07-16T02:02:34;2.90;;;0.47;;
33954;SDS011;20233;50.804;7.126;2023-07-16T02:05:00;2.85;;;0.57;;
33954;SDS011;20233;50.804;7.126;2023-07-16T02:07:27;2.45;;;0.68;;
33954;SDS011;20233;50.804;7.126;2023-07-16T02:09:54;3.58;;;0.60;;
33954;SDS011;20233;50.804;7.126;2023-07-16T02:12:21;4.07;;;0.45;;
33954;SDS011;20233;50.804;7.126;2023-07-16T02:14:47;1.92;;;0.30;;
33954;SDS011;20233;50.804;7.126;2023-07-16T02:17:13;4.35;;;0.63;;
33954;SDS011;20233;50.804;7.126;2023-07-16T02:19:39;4.20;;;1.33;;
33954;SDS011;20233;50.804;7.126;2023-07-16T02:22:05;2.50;;;0.50;;
33954;SDS011;20233;50.804;7.126;2023-07-16T02:24:31;2.65;;;0.43;;
33954;SDS011;20233;50.804;7.126;2023-07-16T02:26:58;2.30;;;0.55;;
33954;SDS011;20233;50.804;7.126;2023-07-16T02:29:24;5.53;;;0.35;;
33954;SDS011;20233;50.804;7.126;2023-07-16T02:31:51;2.40;;;0.30;;
33954;SDS011;20233;50.804;7.126;2023-07-16T02:34:17;2.17;;;0.30;;
33954;SDS011;20233;50.804;7.126;2023-07-16T02:36:43;4.18;;;0.40;;
33954;SDS011;20233;50.804;7.126;2023-07-16T02:39:09;2.60;;;0.40;;
33954;SDS011;20233;50.804;7.126;2023-07-16T02:41:35;6.18;;;0.50;;
33954;SDS011;20233;50.804;7.126;2023-07-16T02:44:04;2.13;;;0.57;;
33954;SDS011;20233;50.804;7.126;2023-07-16T02:46:30;6.00;;;0.88;;
33954;SDS011;20233;50.804;7.126;2023-07-16T02:48:57;4.18;;;0.98;;
33954;SDS011;20233;50.804;7.126;2023-07-16T02:51:24;2.85;;;0.70;;
33954;SDS011;20233;50.804;7.126;2023-07-16T02:53:51;3.40;;;0.40;;
33954;SDS011;20233;50.804;7.126;2023-07-16T02:56:18;2.65;;;0.35;;
33954;SDS011;20233;50.804;7.126;2023-07-16T02:58:44;5.43;;;0.90;;
33954;SDS011;20233;50.804;7.126;2023-07-16T03:01:11;5.03;;;0.80;;
33954;SDS011;20233;50.804;7.126;2023-07-16T03:03:37;3.47;;;0.50;;
33954;SDS011;20233;50.804;7.126;2023-07-16T03:06:04;6.05;;;0.70;;
33954;SDS011;20233;50.804;7.126;2023-07-16T03:08:30;3.33;;;0.60;;
33954;SDS011;20233;50.804;7.126;2023-07-16T03:10:57;4.78;;;0.47;;
33954;SDS011;20233;50.804;7.126;2023-07-16T03:13:24;6.57;;;0.40;;
33954;SDS011;20233;50.804;7.126;2023-07-16T03:15:51;5.32;;;0.45;;
33954;SDS011;20233;50.804;7.126;2023-07-16T03:18:18;3.45;;;0.77;;
33954;SDS011;20233;50.804;7.126;2023-07-16T03:20:45;3.17;;;0.43;;
33954;SDS011;20233;50.804;7.126;2023-07-16T03:23:12;3.03;;;0.43;;
33954;SDS011;20233;50.804;7.126;2023-07-16T03:25:38;5.60;;;0.50;;
33954;SDS011;20233;50.804;7.126;2023-07-16T03:28:05;3.85;;;0.60;;
33954;SDS011;20233;50.804;7.126;2023-07-16T03:30:31;8.70;;;0.65;;
33954;SDS011;20233;50.804;7.126;2023-07-16T03:32:58;4.60;;;0.50;;
33954;SDS011;20233;50.804;7.126;2023-07-16T03:35:25;5.28;;;0.68;;
33954;SDS011;20233;50.804;7.126;2023-07-16T03:37:52;5.78;;;0.57;;
33954;SDS011;20233;50.804;7.126;2023-07-16T03:40:23;5.20;;;0.98;;
33954;SDS011;20233;50.804;7.126;2023-07-16T03:42:50;2.60;;;0.52;;
33954;SDS011;20233;50.804;7.126;2023-07-16T03:45:19;4.03;;;0.47;;
33954;SDS011;20233;50.804;7.126;2023-07-16T03:47:45;5.13;;;0.45;;
33954;SDS011;20233;50.804;7.126;2023-07-16T03:50:12;4.60;;;0.47;;
33954;SDS011;20233;50.804;7.126;2023-07-16T03:52:38;2.97;;;0.57;;
33954;SDS011;20233;50.804;7.126;2023-07-16T03:55:04;5.68;;;0.82;;
33954;SDS011;20233;50.804;7.126;2023-07-16T03:57:32;2.78;;;0.40;;
33954;SDS011;20233;50.804;7.126;2023-07-16T04:00:11;4.55;;;0.60;;
33954;SDS011;20233;50.804;7.126;2023-07-16T04:02:40;4.30;;;0.55;;
33954;SDS011;20233;50.804;7.126;2023-07-16T04:05:07;6.60;;;1.15;;
33954;SDS011;20233;50.804;7.126;2023-07-16T04:07:36;6.47;;;0.60;;
33954;SDS011;20233;50.804;7.126;2023-07-16T04:10:03;1.65;;;0.40;;
33954;SDS011;20233;50.804;7.126;2023-07-16T04:12:30;2.35;;;0.50;;
33954;SDS011;20233;50.804;7.126;2023-07-16T04:14:57;3.42;;;0.60;;
33954;SDS011;20233;50.804;7.126;2023-07-16T04:17:25;3.35;;;0.63;;
33954;SDS011;20233;50.804;7.126;2023-07-16T04:19:53;4.80;;;0.55;;
33954;SDS011;20233;50.804;7.126;2023-07-16T04:22:19;2.60;;;0.77;;
33954;SDS011;20233;50.804;7.126;2023-07-16T04:24:46;5.82;;;0.90;;
33954;SDS011;20233;50.804;7.126;2023-07-16T04:27:14;3.50;;;0.68;;
33954;SDS011;20233;50.804;7.126;2023-07-16T04:29:40;7.82;;;1.13;;
33954;SDS011;20233;50.804;7.126;2023-07-16T04:32:07;6.10;;;0.80;;
33954;SDS011;20233;50.804;7.126;2023-07-16T04:34:36;6.30;;;0.57;;
33954;SDS011;20233;50.804;7.126;2023-07-16T04:37:03;5.68;;;0.90;;
33954;SDS011;20233;50.804;7.126;2023-07-16T04:39:30;3.08;;;0.90;;
33954;SDS011;20233;50.804;7.126;2023-07-16T04:41:56;2.90;;;0.57;;
33954;SDS011;20233;50.804;7.126;2023-07-16T04:44:23;3.80;;;0.52;;
33954;SDS011;20233;50.804;7.126;2023-07-16T04:46:50;3.20;;;0.65;;
33954;SDS011;20233;50.804;7.126;2023-07-16T04:49:17;4.60;;;0.90;;
33954;SDS011;20233;50.804;7.126;2023-07-16T04:51:43;2.78;;;0.60;;
33954;SDS011;20233;50.804;7.126;2023-07-16T04:54:10;4.07;;;0.63;;
33954;SDS011;20233;50.804;7.126;2023-07-16T04:56:36;5.13;;;1.02;;
33954;SDS011;20233;50.804;7.126;2023-07-16T04:59:04;6.82;;;0.98;;
33954;SDS011;20233;50.804;7.126;2023-07-16T05:01:30;5.30;;;0.90;;
33954;SDS011;20233;50.804;7.126;2023-07-16T05:03:57;4.55;;;0.77;;
33954;SDS011;20233;50.804;7.126;2023-07-16T05:06:24;4.32;;;0.80;;
33954;SDS011;20233;50.804;7.126;2023-07-16T05:08:51;4.70;;;0.70;;
33954;SDS011;20233;50.804;7.126;2023-07-16T05:11:18;5.00;;;0.88;;
33954;SDS011;20233;50.804;7.126;2023-07-16T05:13:44;5.43;;;0.80;;
33954;SDS011;20233;50.804;7.126;2023-07-16T05:16:10;10.18;;;1.27;;
33954;SDS011;20233;50.804;7.126;2023-07-16T05:18:36;5.93;;;0.93;;
33954;SDS011;20233;50.804;7.126;2023-07-16T05:21:04;6.72;;;0.90;;
33954;SDS011;20233;50.804;7.126;2023-07-16T05:23:31;7.80;;;1.20;;
33954;SDS011;20233;50.804;7.126;2023-07-16T05:25:58;4.90;;;1.15;;
33954;SDS011;20233;50.804;7.126;2023-07-16T05:28:25;6.05;;;0.90;;
33954;SDS011;20233;50.804;7.126;2023-07-16T05:31:02;5.63;;;1.00;;
33954;SDS011;20233;50.804;7.126;2023-07-16T05:33:30;6.70;;;1.10;;
33954;SDS011;20233;50.804;7.126;2023-07-16T05:35:56;5.05;;;0.85;;
33954;SDS011;20233;50.804;7.126;2023-07-16T05:38:23;8.57;;;1.60;;
33954;SDS011;20233;50.804;7.126;2023-07-16T05:40:52;7.95;;;1.48;;
33954;SDS011;20233;50.804;7.126;2023-07-16T05:43:18;5.53;;;1.08;;
33954;SDS011;20233;50.804;7.126;2023-07-16T05:45:45;8.57;;;1.55;;
33954;SDS011;20233;50.804;7.126;2023-07-16T05:48:11;8.82;;;1.50;;
33954;SDS011;20233;50.804;7.126;2023-07-16T05:50:38;5.78;;;1.60;;
33954;SDS011;20233;50.804;7.126;2023-07-16T05:53:05;7.78;;;1.38;;
33954;SDS011;20233;50.804;7.126;2023-07-16T05:55:32;7.90;;;1.45;;
33954;SDS011;20233;50.804;7.126;2023-07-16T05:57:59;4.05;;;1.45;;
33954;SDS011;20233;50.804;7.126;2023-07-16T06:00:28;7.20;;;1.58;;
33954;SDS011;20233;50.804;7.126;2023-07-16T06:02:55;4.72;;;1.90;;
33954;SDS011;20233;50.804;7.126;2023-07-16T06:05:22;6.43;;;1.75;;
33954;SDS011;20233;50.804;7.126;2023-07-16T06:07:49;6.95;;;2.63;;
33954;SDS011;20233;50.804;7.126;2023-07-16T06:10:16;8.52;;;2.15;;
33954;SDS011;20233;50.804;7.126;2023-07-16T06:12:42;7.88;;;2.50;;
33954;SDS011;20233;50.804;7.126;2023-07-16T06:15:13;5.63;;;2.28;;
33954;SDS011;20233;50.804;7.126;2023-07-16T06:17:39;7.18;;;2.28;;
33954;SDS011;20233;50.804;7.126;2023-07-16T06:20:06;6.97;;;1.92;;
33954;SDS011;20233;50.804;7.126;2023-07-16T06:22:36;6.18;;;2.20;;
33954;SDS011;20233;50.804;7.126;2023-07-16T06:25:03;6.60;;;2.70;;
33954;SDS011;20233;50.804;7.126;2023-07-16T06:27:31;9.73;;;2.55;;
33954;SDS011;20233;50.804;7.126;2023-07-16T06:29:57;7.57;;;3.00;;
33954;SDS011;20233;50.804;7.126;2023-07-16T06:32:24;7.13;;;2.78;;
33954;SDS011;20233;50.804;7.126;2023-07-16T06:34:50;6.90;;;2.72;;
33954;SDS011;20233;50.804;7.126;2023-07-16T06:37:17;6.82;;;2.47;;
33954;SDS011;20233;50.804;7.126;2023-07-16T06:39:48;5.43;;;2.40;;
33954;SDS011;20233;50.804;7.126;2023-07-16T06:42:16;6.53;;;2.40;;
33954;SDS011;20233;50.804;7.126;2023-07-16T06:44:42;9.13;;;2.33;;
33954;SDS011;20233;50.804;7.126;2023-07-16T06:47:08;7.97;;;2.70;;
33954;SDS011;20233;50.804;7.126;2023-07-16T06:49:35;6.43;;;2.45;;
33954;SDS011;20233;50.804;7.126;2023-07-16T06:52:02;11.57;;;3.13;;
33954;SDS011;20233;50.804;7.126;2023-07-16T06:54:29;5.00;;;2.80;;
33954;SDS011;20233;50.804;7.126;2023-07-16T06:56:56;6.70;;;2.80;;
33954;SDS011;20233;50.804;7.126;2023-07-16T06:59:22;10.02;;;2.90;;
33954;SDS011;20233;50.804;7.126;2023-07-16T07:01:48;6.30;;;2.35;;
33954;SDS011;20233;50.804;7.126;2023-07-16T07:04:14;6.35;;;2.60;;
33954;SDS011;20233;50.804;7.126;2023-07-16T07:06:41;6.22;;;2.47;;
33954;SDS011;20233;50.804;7.126;2023-07-16T07:09:09;8.32;;;2.97;;
33954;SDS011;20233;50.804;7.126;2023-07-16T07:11:35;6.95;;;2.85;;
33954;SDS011;20233;50.804;7.126;2023-07-16T07:14:02;6.93;;;2.97;;
33954;SDS011;20233;50.804;7.126;2023-07-16T07:16:31;8.57;;;3.22;;
33954;SDS011;20233;50.804;7.126;2023-07-16T07:18:57;8.07;;;3.10;;
33954;SDS011;20233;50.804;7.126;2023-07-16T07:21:24;7.57;;;3.03;;
33954;SDS011;20233;50.804;7.126;2023-07-16T07:23:52;7.00;;;3.00;;
33954;SDS011;20233;50.804;7.126;2023-07-16T07:26:19;5.72;;;2.92;;
33954;SDS011;20233;50.804;7.126;2023-07-16T07:28:46;7.63;;;3.65;;
33954;SDS011;20233;50.804;7.126;2023-07-16T07:31:12;3.85;;;2.30;;
33954;SDS011;20233;50.804;7.126;2023-07-16T07:33:38;7.03;;;4.10;;
33954;SDS011;20233;50.804;7.126;2023-07-16T07:36:07;8.57;;;3.40;;
33954;SDS011;20233;50.804;7.126;2023-07-16T07:38:37;7.03;;;3.72;;
33954;SDS011;20233;50.804;7.126;2023-07-16T07:41:04;7.65;;;3.35;;
33954;SDS011;20233;50.804;7.126;2023-07-16T07:43:32;6.90;;;3.25;;
33954;SDS011;20233;50.804;7.126;2023-07-16T07:45:59;7.85;;;3.50;;
33954;SDS011;20233;50.804;7.126;2023-07-16T07:48:26;6.35;;;3.20;;
33954;SDS011;20233;50.804;7.126;2023-07-16T07:50:53;5.72;;;3.35;;
33954;SDS011;20233;50.804;7.126;2023-07-16T07:53:19;6.53;;;4.10;;
33954;SDS011;20233;50.804;7.126;2023-07-16T07:55:45;8.07;;;3.20;;
33954;SDS011;20233;50.804;7.126;2023-07-16T07:58:11;6.03;;;3.17;;
33954;SDS011;20233;50.804;7.126;2023-07-16T08:00:38;5.90;;;3.42;;
33954;SDS011;20233;50.804;7.126;2023-07-16T08:03:05;8.23;;;3.42;;
33954;SDS011;20233;50.804;7.126;2023-07-16T08:05:31;9.45;;;3.72;;
33954;SDS011;20233;50.804;7.126;2023-07-16T08:07:59;7.75;;;3.42;;
33954;SDS011;20233;50.804;7.126;2023-07-16T08:10:26;8.10;;;3.42;;
33954;SDS011;20233;50.804;7.126;2023-07-16T08:12:52;9.18;;;4.05;;
33954;SDS011;20233;50.804;7.126;2023-07-16T08:15:20;7.22;;;3.45;;
33954;SDS011;20233;50.804;7.126;2023-07-16T08:17:48;7.90;;;3.47;;
33954;SDS011;20233;50.804;7.126;2023-07-16T08:20:15;8.65;;;3.40;;
33954;SDS011;20233;50.804;7.126;2023-07-16T08:22:40;8.80;;;3.20;;
33954;SDS011;20233;50.804;7.126;2023-07-16T08:25:07;7.90;;;3.40;;
33954;SDS011;20233;50.804;7.126;2023-07-16T08:27:33;6.45;;;3.80;;
33954;SDS011;20233;50.804;7.126;2023-07-16T08:30:00;10.43;;;4.32;;
33954;SDS011;20233;50.804;7.126;2023-07-16T08:32:26;5.88;;;3.60;;
33954;SDS011;20233;50.804;7.126;2023-07-16T08:34:52;8.73;;;4.15;;
33954;SDS011;20233;50.804;7.126;2023-07-16T08:37:18;6.82;;;3.80;;
33954;SDS011;20233;50.804;7.126;2023-07-16T08:39:46;7.65;;;3.85;;
33954;SDS011;20233;50.804;7.126;2023-07-16T08:42:19;5.68;;;3.42;;
33954;SDS011;20233;50.804;7.126;2023-07-16T08:44:52;6.18;;;3.40;;
33954;SDS011;20233;50.804;7.126;2023-07-16T08:47:19;4.95;;;3.33;;
33954;SDS011;20233;50.804;7.126;2023-07-16T08:49:53;8.73;;;3.60;;
33954;SDS011;20233;50.804;7.126;2023-07-16T08:52:21;4.75;;;2.90;;
33954;SDS011;20233;50.804;7.126;2023-07-16T08:54:49;4.68;;;2.90;;
33954;SDS011;20233;50.804;7.126;2023-07-16T08:57:16;5.60;;;2.75;;
33954;SDS011;20233;50.804;7.126;2023-07-16T08:59:47;5.88;;;2.83;;
33954;SDS011;20233;50.804;7.126;2023-07-16T09:02:18;6.13;;;2.80;;
33954;SDS011;20233;50.804;7.126;2023-07-16T09:04:50;4.18;;;2.42;;
33954;SDS011;20233;50.804;7.126;2023-07-16T09:07:17;4.85;;;2.53;;
33954;SDS011;20233;50.804;7.126;2023-07-16T09:09:43;4.65;;;2.67;;
33954;SDS011;20233;50.804;7.126;2023-07-16T09:12:23;5.28;;;2.95;;
33954;SDS011;20233;50.804;7.126;2023-07-16T09:14:51;6.88;;;2.33;;
33954;SDS011;20233;50.804;7.126;2023-07-16T09:17:22;5.50;;;2.17;;
33954;SDS011;20233;50.804;7.126;2023-07-16T09:19:50;4.20;;;2.53;;
33954;SDS011;20233;50.804;7.126;2023-07-16T09:22:17;6.75;;;2.00;;
33954;SDS011;20233;50.804;7.126;2023-07-16T09:24:47;5.53;;;1.90;;
33954;SDS011;20233;50.804;7.126;2023-07-16T09:27:14;5.90;;;2.60;;
33954;SDS011;20233;50.804;7.126;2023-07-16T09:29:41;5.20;;;1.90;;
33954;SDS011;20233;50.804;7.126;2023-07-16T09:32:08;6.65;;;1.67;;
33954;SDS011;20233;50.804;7.126;2023-07-16T09:34:35;4.60;;;1.83;;
33954;SDS011;20233;50.804;7.126;2023-07-16T09:37:01;3.33;;;1.80;;
33954;SDS011;20233;50.804;7.126;2023-07-16T09:39:29;3.63;;;1.70;;
33954;SDS011;20233;50.804;7.126;2023-07-16T09:41:58;4.93;;;1.95;;
33954;SDS011;20233;50.804;7.126;2023-07-16T09:44:24;5.15;;;2.40;;
33954;SDS011;20233;50.804;7.126;2023-07-16T09:46:51;4.85;;;1.90;;
33954;SDS011;20233;50.804;7.126;2023-07-16T09:49:17;3.35;;;2.05;;
33954;SDS011;20233;50.804;7.126;2023-07-16T09:51:44;5.80;;;2.08;;
33954;SDS011;20233;50.804;7.126;2023-07-16T09:54:13;4.72;;;2.13;;
33954;SDS011;20233;50.804;7.126;2023-07-16T09:56:44;5.55;;;1.63;;
33954;SDS011;20233;50.804;7.126;2023-07-16T09:59:14;4.57;;;1.95;;
33954;SDS011;20233;50.804;7.126;2023-07-16T10:01:43;4.55;;;1.83;;
33954;SDS011;20233;50.804;7.126;2023-07-16T10:04:14;5.65;;;2.08;;
33954;SDS011;20233;50.804;7.126;2023-07-16T10:09:32;4.57;;;1.50;;
33954;SDS011;20233;50.804;7.126;2023-07-16T10:12:15;3.08;;;1.42;;
33954;SDS011;20233;50.804;7.126;2023-07-16T10:14:46;3.45;;;1.20;;
33954;SDS011;20233;50.804;7.126;2023-07-16T10:17:19;6.65;;;1.38;;
33954;SDS011;20233;50.804;7.126;2023-07-16T10:19:51;3.88;;;0.85;;
33954;SDS011;20233;50.804;7.126;2023-07-16T10:22:34;3.70;;;1.23;;
33954;SDS011;20233;50.804;7.126;2023-07-16T10:25:10;3.13;;;1.30;;
33954;SDS011;20233;50.804;7.126;2023-07-16T10:27:36;4.28;;;1.30;;
33954;SDS011;20233;50.804;7.126;2023-07-16T10:30:04;3.67;;;1.33;;
33954;SDS011;20233;50.804;7.126;2023-07-16T10:32:31;5.50;;;1.75;;
33954;SDS011;20233;50.804;7.126;2023-07-16T10:34:59;3.47;;;1.30;;
33954;SDS011;20233;50.804;7.126;2023-07-16T10:37:26;3.30;;;1.20;;
33954;SDS011;20233;50.804;7.126;2023-07-16T10:39:55;3.53;;;1.20;;
33954;SDS011;20233;50.804;7.126;2023-07-16T10:42:23;3.40;;;1.60;;
33954;SDS011;20233;50.804;7.126;2023-07-16T10:44:51;4.63;;;1.67;;
33954;SDS011;20233;50.804;7.126;2023-07-16T10:47:28;5.85;;;1.75;;
33954;SDS011;20233;50.804;7.126;2023-07-16T10:50:08;5.32;;;1.75;;
33954;SDS011;20233;50.804;7.126;2023-07-16T10:52:35;4.53;;;1.35;;
33954;SDS011;20233;50.804;7.126;2023-07-16T10:55:02;3.35;;;1.20;;
33954;SDS011;20233;50.804;7.126;2023-07-16T10:57:28;5.90;;;1.42;;
33954;SDS011;20233;50.804;7.126;2023-07-16T10:59:56;4.22;;;1.60;;
33954;SDS011;20233;50.804;7.126;2023-07-16T11:02:23;2.78;;;1.27;;
33954;SDS011;20233;50.804;7.126;2023-07-16T11:04:50;4.72;;;1.40;;
33954;SDS011;20233;50.804;7.126;2023-07-16T11:07:19;3.38;;;1.13;;
33954;SDS011;20233;50.804;7.126;2023-07-16T11:09:46;3.72;;;1.63;;
33954;SDS011;20233;50.804;7.126;2023-07-16T11:14:44;4.80;;;1.50;;
33954;SDS011;20233;50.804;7.126;2023-07-16T11:17:11;4.32;;;1.40;;
33954;SDS011;20233;50.804;7.126;2023-07-16T11:19:38;4.45;;;1.48;;
33954;SDS011;20233;50.804;7.126;2023-07-16T11:22:06;5.60;;;1.88;;
33954;SDS011;20233;50.804;7.126;2023-07-16T11:24:48;4.10;;;1.25;;
33954;SDS011;20233;50.804;7.126;2023-07-16T11:27:19;3.88;;;1.50;;
33954;SDS011;20233;50.804;7.126;2023-07-16T11:29:46;3.72;;;1.40;;
33954;SDS011;20233;50.804;7.126;2023-07-16T11:34:59;2.78;;;1.10;;
33954;SDS011;20233;50.804;7.126;2023-07-16T11:37:26;4.50;;;1.38;;
33954;SDS011;20233;50.804;7.126;2023-07-16T11:40:09;2.65;;;1.38;;
33954;SDS011;20233;50.804;7.126;2023-07-16T11:42:37;4.95;;;1.48;;
33954;SDS011;20233;50.804;7.126;2023-07-16T11:45:17;5.55;;;1.20;;
33954;SDS011;20233;50.804;7.126;2023-07-16T11:47:48;3.03;;;1.15;;
33954;SDS011;20233;50.804;7.126;2023-07-16T11:50:14;3.45;;;1.20;;
33954;SDS011;20233;50.804;7.126;2023-07-16T11:52:41;3.47;;;1.50;;
33954;SDS011;20233;50.804;7.126;2023-07-16T11:55:07;4.18;;;1.38;;
33954;SDS011;20233;50.804;7.126;2023-07-16T11:57:33;2.65;;;1.30;;
33954;SDS011;20233;50.804;7.126;2023-07-16T11:59:59;3.90;;;1.65;;
33954;SDS011;20233;50.804;7.126;2023-07-16T12:02:25;4.28;;;1.67;;
33954;SDS011;20233;50.804;7.126;2023-07-16T12:04:52;4.53;;;1.63;;
33954;SDS011;20233;50.804;7.126;2023-07-16T12:07:33;2.63;;;1.08;;
33954;SDS011;20233;50.804;7.126;2023-07-16T12:10:02;3.38;;;1.20;;
33954;SDS011;20233;50.804;7.126;2023-07-16T12:12:29;5.07;;;1.73;;
33954;SDS011;20233;50.804;7.126;2023-07-16T12:14:55;5.60;;;1.00;;
33954;SDS011;20233;50.804;7.126;2023-07-16T12:17:21;4.20;;;1.00;;
33954;SDS011;20233;50.804;7.126;2023-07-16T12:19:46;4.07;;;1.48;;
33954;SDS011;20233;50.804;7.126;2023-07-16T12:22:12;4.32;;;1.10;;
33954;SDS011;20233;50.804;7.126;2023-07-16T12:24:41;4.50;;;1.52;;
33954;SDS011;20233;50.804;7.126;2023-07-16T12:27:06;3.10;;;1.90;;
33954;SDS011;20233;50.804;7.126;2023-07-16T12:29:32;3.38;;;1.67;;
33954;SDS011;20233;50.804;7.126;2023-07-16T12:31:57;4.13;;;1.50;;
33954;SDS011;20233;50.804;7.126;2023-07-16T12:34:23;4.93;;;2.00;;
33954;SDS011;20233;50.804;7.126;2023-07-16T12:36:49;2.83;;;1.20;;
33954;SDS011;20233;50.804;7.126;2023-07-16T12:39:14;2.95;;;1.20;;
33954;SDS011;20233;50.804;7.126;2023-07-16T12:41:40;5.00;;;1.13;;
33954;SDS011;20233;50.804;7.126;2023-07-16T12:44:06;3.47;;;1.85;;
33954;SDS011;20233;50.804;7.126;2023-07-16T12:46:32;2.67;;;1.13;;
33954;SDS011;20233;50.804;7.126;2023-07-16T12:48:58;4.57;;;1.85;;
33954;SDS011;20233;50.804;7.126;2023-07-16T12:51:23;5.63;;;1.33;;
33954;SDS011;20233;50.804;7.126;2023-07-16T12:53:49;5.03;;;1.67;;
33954;SDS011;20233;50.804;7.126;2023-07-16T12:56:15;4.40;;;1.80;;
33954;SDS011;20233;50.804;7.126;2023-07-16T12:58:40;3.67;;;1.40;;
33954;SDS011;20233;50.804;7.126;2023-07-16T13:01:06;4.28;;;1.23;;
33954;SDS011;20233;50.804;7.126;2023-07-16T13:03:32;2.63;;;1.02;;
33954;SDS011;20233;50.804;7.126;2023-07-16T13:05:58;4.03;;;1.35;;
33954;SDS011;20233;50.804;7.126;2023-07-16T13:08:24;4.85;;;1.63;;
33954;SDS011;20233;50.804;7.126;2023-07-16T13:10:49;2.70;;;1.00;;
33954;SDS011;20233;50.804;7.126;2023-07-16T13:13:15;3.90;;;1.42;;
33954;SDS011;20233;50.804;7.126;2023-07-16T13:15:40;3.10;;;1.30;;
33954;SDS011;20233;50.804;7.126;2023-07-16T13:18:07;7.03;;;1.27;;
33954;SDS011;20233;50.804;7.126;2023-07-16T13:20:34;4.25;;;1.08;;
33954;SDS011;20233;50.804;7.126;2023-07-16T13:22:59;3.55;;;1.35;;
33954;SDS011;20233;50.804;7.126;2023-07-16T13:25:25;5.72;;;1.10;;
33954;SDS011;20233;50.804;7.126;2023-07-16T13:27:51;4.63;;;1.75;;
33954;SDS011;20233;50.804;7.126;2023-07-16T13:30:18;5.55;;;1.63;;
33954;SDS011;20233;50.804;7.126;2023-07-16T13:32:43;4.65;;;1.40;;
33954;SDS011;20233;50.804;7.126;2023-07-16T13:35:09;2.65;;;0.82;;
33954;SDS011;20233;50.804;7.126;2023-07-16T13:37:35;4.97;;;1.27;;
33954;SDS011;20233;50.804;7.126;2023-07-16T13:40:01;4.03;;;1.02;;
33954;SDS011;20233;50.804;7.126;2023-07-16T13:42:26;3.83;;;1.00;;
33954;SDS011;20233;50.804;7.126;2023-07-16T13:44:52;4.07;;;1.13;;
33954;SDS011;20233;50.804;7.126;2023-07-16T13:47:17;3.33;;;1.15;;
33954;SDS011;20233;50.804;7.126;2023-07-16T13:49:43;5.05;;;2.05;;
33954;SDS011;20233;50.804;7.126;2023-07-16T13:52:09;4.88;;;1.30;;
33954;SDS011;20233;50.804;7.126;2023-07-16T13:54:34;6.05;;;1.23;;
33954;SDS011;20233;50.804;7.126;2023-07-16T13:56:59;3.42;;;2.05;;
33954;SDS011;20233;50.804;7.126;2023-07-16T13:59:25;5.07;;;1.45;;
33954;SDS011;20233;50.804;7.126;2023-07-16T14:01:58;3.67;;;0.88;;
33954;SDS011;20233;50.804;7.126;2023-07-16T14:04:25;4.50;;;1.38;;
33954;SDS011;20233;50.804;7.126;2023-07-16T14:06:51;4.57;;;1.08;;
33954;SDS011;20233;50.804;7.126;2023-07-16T14:09:18;4.30;;;1.20;;
33954;SDS011;20233;50.804;7.126;2023-07-16T14:11:44;4.45;;;1.33;;
33954;SDS011;20233;50.804;7.126;2023-07-16T14:14:12;3.75;;;1.50;;
33954;SDS011;20233;50.804;7.126;2023-07-16T14:16:41;5.20;;;1.33;;
33954;SDS011;20233;50.804;7.126;2023-07-16T14:19:08;5.97;;;1.58;;
33954;SDS011;20233;50.804;7.126;2023-07-16T14:21:33;3.67;;;1.20;;
33954;SDS011;20233;50.804;7.126;2023-07-16T14:23:59;3.30;;;1.55;;
33954;SDS011;20233;50.804;7.126;2023-07-16T14:26:26;4.35;;;1.67;;
33954;SDS011;20233;50.804;7.126;2023-07-16T14:28:52;4.63;;;1.23;;
33954;SDS011;20233;50.804;7.126;2023-07-16T14:31:18;2.63;;;1.40;;
33954;SDS011;20233;50.804;7.126;2023-07-16T14:33:44;3.58;;;1.27;;
33954;SDS011;20233;50.804;7.126;2023-07-16T14:36:09;4.13;;;1.70;;
33954;SDS011;20233;50.804;7.126;2023-07-16T14:38:35;4.32;;;1.30;;
33954;SDS011;20233;50.804;7.126;2023-07-16T14:41:00;3.53;;;1.10;;
33954;SDS011;20233;50.804;7.126;2023-07-16T14:43:26;5.18;;;1.50;;
33954;SDS011;20233;50.804;7.126;2023-07-16T14:45:52;4.47;;;1.23;;
33954;SDS011;20233;50.804;7.126;2023-07-16T14:48:17;3.50;;;0.93;;
33954;SDS011;20233;50.804;7.126;2023-07-16T14:50:43;3.40;;;1.55;;
33954;SDS011;20233;50.804;7.126;2023-07-16T14:53:08;4.03;;;1.10;;
33954;SDS011;20233;50.804;7.126;2023-07-16T14:55:35;4.07;;;1.08;;
33954;SDS011;20233;50.804;7.126;2023-07-16T14:58:01;4.18;;;1.33;;
33954;SDS011;20233;50.804;7.126;2023-07-16T15:00:27;3.97;;;1.13;;